sensor_id;sensor_type;location;lat;lon;timestamp;pressure;altitude;pressure_sealevel;temperature;humidity
51928;BME280;37953;52.806;18.270;2023-03-20T00:02:24;100575.16;;;8.98;100.00
51928;BME280;37953;52.806;18.270;2023-03-20T00:04:50;100572.53;;;8.96;100.00
51928;BME280;37953;52.806;18.270;2023-03-20T00:07:16;100570.81;;;8.95;100.00
51928;BME280;37953;52.806;18.270;2023-03-20T00:09:42;100572.53;;;8.93;100.00
51928;BME280;37953;52.806;18.270;2023-03-20T00:12:14;100567.31;;;8.92;100.00
51928;BME280;37953;52.806;18.270;2023-03-20T00:14:43;100560.38;;;8.91;100.00
51928;BME280;37953;52.806;18.270;2023-03-20T00:17:09;100560.38;;;8.91;100.00
51928;BME280;37953;52.806;18.270;2023-03-20T00:19:36;100562.13;;;8.92;100.00
51928;BME280;37953;52.806;18.270;2023-03-20T00:22:02;100554.34;;;8.90;100.00
51928;BME280;37953;52.806;18.270;2023-03-20T00:24:27;100556.06;;;8.90;100.00
51928;BME280;37953;52.806;18.270;2023-03-20T00:26:53;100562.97;;;8.89;100.00
51928;BME280;37953;52.806;18.270;2023-03-20T00:29:23;100561.25;;;8.90;100.00
51928;BME280;37953;52.806;18.270;2023-03-20T00:31:55;100554.34;;;8.90;100.00
51928;BME280;37953;52.806;18.270;2023-03-20T00:34:23;100552.66;;;8.94;100.00
51928;BME280;37953;52.806;18.270;2023-03-20T00:36:50;100549.25;;;8.98;100.00
51928;BME280;37953;52.806;18.270;2023-03-20T00:39:16;100550.16;;;9.02;100.00
51928;BME280;37953;52.806;18.270;2023-03-20T00:41:43;100541.53;;;9.04;100.00
51928;BME280;37953;52.806;18.270;2023-03-20T00:46:46;100535.53;;;9.07;100.00
51928;BME280;37953;52.806;18.270;2023-03-20T00:49:13;100535.53;;;9.07;100.00
51928;BME280;37953;52.806;18.270;2023-03-20T00:51:39;100527.72;;;9.05;100.00
51928;BME280;37953;52.806;18.270;2023-03-20T00:54:13;100541.50;;;9.00;100.00
51928;BME280;37953;52.806;18.270;2023-03-20T00:56:40;100532.78;;;8.94;100.00
51928;BME280;37953;52.806;18.270;2023-03-20T00:59:08;100533.63;;;8.90;100.00
51928;BME280;37953;52.806;18.270;2023-03-20T01:01:38;100528.41;;;8.87;100.00
51928;BME280;37953;52.806;18.270;2023-03-20T01:04:08;100534.44;;;8.86;100.00
51928;BME280;37953;52.806;18.270;2023-03-20T01:06:35;100526.66;;;8.83;100.00
51928;BME280;37953;52.806;18.270;2023-03-20T01:09:02;100525.72;;;8.80;100.00
51928;BME280;37953;52.806;18.270;2023-03-20T01:11:28;100521.38;;;8.75;100.00
51928;BME280;37953;52.806;18.270;2023-03-20T01:13:54;100526.53;;;8.72;100.00
51928;BME280;37953;52.806;18.270;2023-03-20T01:16:20;100524.75;;;8.68;100.00
51928;BME280;37953;52.806;18.270;2023-03-20T01:18:47;100513.50;;;8.66;100.00
51928;BME280;37953;52.806;18.270;2023-03-20T01:21:13;100516.03;;;8.63;100.00
51928;BME280;37953;52.806;18.270;2023-03-20T01:23:39;100522.06;;;8.61;100.00
51928;BME280;37953;52.806;18.270;2023-03-20T01:26:19;100522.91;;;8.58;100.00
51928;BME280;37953;52.806;18.270;2023-03-20T01:28:46;100517.69;;;8.56;100.00
51928;BME280;37953;52.806;18.270;2023-03-20T01:31:13;100519.41;;;8.54;100.00
51928;BME280;37953;52.806;18.270;2023-03-20T01:33:39;100518.56;;;8.55;100.00
51928;BME280;37953;52.806;18.270;2023-03-20T01:36:04;100514.25;;;8.56;100.00
51928;BME280;37953;52.806;18.270;2023-03-20T01:38:30;100517.69;;;8.56;100.00
51928;BME280;37953;52.806;18.270;2023-03-20T01:43:34;100517.75;;;8.60;100.00
51928;BME280;37953;52.806;18.270;2023-03-20T01:46:08;100512.56;;;8.60;100.00
51928;BME280;37953;52.806;18.270;2023-03-20T01:53:44;100503.13;;;8.65;100.00
51928;BME280;37953;52.806;18.270;2023-03-20T01:56:12;100500.59;;;8.68;100.00
51928;BME280;37953;52.806;18.270;2023-03-20T01:58:47;100501.44;;;8.70;100.00
51928;BME280;37953;52.806;18.270;2023-03-20T02:01:15;100498.88;;;8.71;100.00
51928;BME280;37953;52.806;18.270;2023-03-20T02:03:47;100499.75;;;8.73;100.00
51928;BME280;37953;52.806;18.270;2023-03-20T02:06:15;100500.63;;;8.72;100.00
51928;BME280;37953;52.806;18.270;2023-03-20T02:08:43;100491.97;;;8.72;100.00
51928;BME280;37953;52.806;18.270;2023-03-20T02:11:10;100491.97;;;8.70;100.00
51928;BME280;37953;52.806;18.270;2023-03-20T02:13:37;100499.69;;;8.66;100.00
51928;BME280;37953;52.806;18.270;2023-03-20T02:16:05;100509.16;;;8.64;100.00
51928;BME280;37953;52.806;18.270;2023-03-20T02:18:34;100505.63;;;8.59;100.00
51928;BME280;37953;52.806;18.270;2023-03-20T02:44:25;100501.16;;;8.44;100.00
51928;BME280;37953;52.806;18.270;2023-03-20T02:57:20;100492.88;;;8.75;100.00
51928;BME280;37953;52.806;18.270;2023-03-20T03:02:30;100488.66;;;8.87;100.00
51928;BME280;37953;52.806;18.270;2023-03-20T03:05:00;100483.56;;;8.91;100.00
51928;BME280;37953;52.806;18.270;2023-03-20T03:07:27;100481.00;;;8.96;100.00
51928;BME280;37953;52.806;18.270;2023-03-20T03:10:00;100485.34;;;8.99;100.00
51928;BME280;37953;52.806;18.270;2023-03-20T03:12:28;100485.38;;;9.02;100.00
51928;BME280;37953;52.806;18.270;2023-03-20T03:15:06;100483.66;;;9.05;100.00
51928;BME280;37953;52.806;18.270;2023-03-20T03:17:35;100483.69;;;9.07;100.00
51928;BME280;37953;52.806;18.270;2023-03-20T03:20:04;100482.84;;;9.09;100.00
51928;BME280;37953;52.806;18.270;2023-03-20T03:22:32;100484.59;;;9.12;100.00
51928;BME280;37953;52.806;18.270;2023-03-20T03:24:59;100481.16;;;9.13;100.00
51928;BME280;37953;52.806;18.270;2023-03-20T03:27:26;100485.50;;;9.15;100.00
51928;BME280;37953;52.806;18.270;2023-03-20T03:30:27;100495.00;;;9.18;100.00
51928;BME280;37953;52.806;18.270;2023-03-20T03:32:47;100488.97;;;9.21;100.00
51928;BME280;37953;52.806;18.270;2023-03-20T03:35:18;100486.38;;;9.21;100.00
51928;BME280;37953;52.806;18.270;2023-03-20T03:40:18;100478.63;;;9.22;100.00
51928;BME280;37953;52.806;18.270;2023-03-20T03:42:51;100484.69;;;9.24;100.00
51928;BME280;37953;52.806;18.270;2023-03-20T03:45:20;100483.88;;;9.25;100.00
51928;BME280;37953;52.806;18.270;2023-03-20T03:47:51;100471.75;;;9.26;100.00
51928;BME280;37953;52.806;18.270;2023-03-20T03:50:20;100480.41;;;9.26;100.00
51928;BME280;37953;52.806;18.270;2023-03-20T03:52:48;100470.91;;;9.28;100.00
51928;BME280;37953;52.806;18.270;2023-03-20T03:55:18;100469.19;;;9.29;100.00
51928;BME280;37953;52.806;18.270;2023-03-20T03:57:59;100462.28;;;9.29;100.00
51928;BME280;37953;52.806;18.270;2023-03-20T04:00:26;100470.06;;;9.31;100.00
51928;BME280;37953;52.806;18.270;2023-03-20T04:02:54;100465.78;;;9.31;100.00
51928;BME280;37953;52.806;18.270;2023-03-20T04:05:20;100463.16;;;9.30;100.00
51928;BME280;37953;52.806;18.270;2023-03-20T04:07:47;100463.16;;;9.30;100.00
51928;BME280;37953;52.806;18.270;2023-03-20T04:10:17;100464.88;;;9.29;100.00
51928;BME280;37953;52.806;18.270;2023-03-20T04:12:43;100458.81;;;9.29;100.00
51928;BME280;37953;52.806;18.270;2023-03-20T04:15:10;100464.00;;;9.29;100.00
51928;BME280;37953;52.806;18.270;2023-03-20T04:17:35;100460.53;;;9.28;100.00
51928;BME280;37953;52.806;18.270;2023-03-20T04:20:02;100461.41;;;9.27;100.00
51928;BME280;37953;52.806;18.270;2023-03-20T04:22:28;100466.59;;;9.27;100.00
51928;BME280;37953;52.806;18.270;2023-03-20T04:24:54;100458.78;;;9.26;100.00
51928;BME280;37953;52.806;18.270;2023-03-20T04:27:20;100464.84;;;9.26;100.00
51928;BME280;37953;52.806;18.270;2023-03-20T04:29:46;100463.13;;;9.25;100.00
51928;BME280;37953;52.806;18.270;2023-03-20T04:32:12;100464.81;;;9.25;100.00
51928;BME280;37953;52.806;18.270;2023-03-20T04:34:38;100464.81;;;9.25;100.00
51928;BME280;37953;52.806;18.270;2023-03-20T04:37:03;100476.06;;;9.24;100.00
51928;BME280;37953;52.806;18.270;2023-03-20T04:39:33;100469.16;;;9.24;100.00
51928;BME280;37953;52.806;18.270;2023-03-20T04:41:58;100478.66;;;9.24;100.00
51928;BME280;37953;52.806;18.270;2023-03-20T04:44:24;100470.00;;;9.25;100.00
51928;BME280;37953;52.806;18.270;2023-03-20T04:46:50;100470.88;;;9.24;100.00
51928;BME280;37953;52.806;18.270;2023-03-20T04:49:16;100468.25;;;9.22;100.00
51928;BME280;37953;52.806;18.270;2023-03-20T04:51:42;100470.84;;;9.21;100.00
51928;BME280;37953;52.806;18.270;2023-03-20T04:54:07;100465.66;;;9.21;100.00
51928;BME280;37953;52.806;18.270;2023-03-20T04:56:33;100476.88;;;9.20;100.00
51928;BME280;37953;52.806;18.270;2023-03-20T04:58:59;100463.94;;;9.20;100.00
51928;BME280;37953;52.806;18.270;2023-03-20T05:01:25;100469.13;;;9.20;100.00
51928;BME280;37953;52.806;18.270;2023-03-20T05:03:51;100475.16;;;9.19;100.00
51928;BME280;37953;52.806;18.270;2023-03-20T05:06:16;100469.09;;;9.18;100.00
51928;BME280;37953;52.806;18.270;2023-03-20T05:08:42;100473.44;;;9.19;100.00
51928;BME280;37953;52.806;18.270;2023-03-20T05:11:08;100475.16;;;9.20;100.00
51928;BME280;37953;52.806;18.270;2023-03-20T05:13:34;100473.44;;;9.21;100.00
51928;BME280;37953;52.806;18.270;2023-03-20T05:16:00;100474.31;;;9.21;100.00
51928;BME280;37953;52.806;18.270;2023-03-20T05:18:26;100468.25;;;9.22;100.00
51928;BME280;37953;52.806;18.270;2023-03-20T05:20:51;100463.97;;;9.24;100.00
51928;BME280;37953;52.806;18.270;2023-03-20T05:23:17;100481.28;;;9.25;100.00
51928;BME280;37953;52.806;18.270;2023-03-20T05:25:43;100482.09;;;9.24;100.00
51928;BME280;37953;52.806;18.270;2023-03-20T05:28:09;100482.97;;;9.25;100.00
51928;BME280;37953;52.806;18.270;2023-03-20T05:30:35;100482.13;;;9.26;100.00
51928;BME280;37953;52.806;18.270;2023-03-20T05:33:01;100485.56;;;9.26;100.00
51928;BME280;37953;52.806;18.270;2023-03-20T05:35:26;100489.03;;;9.27;100.00
51928;BME280;37953;52.806;18.270;2023-03-20T05:37:52;100479.56;;;9.27;100.00
51928;BME280;37953;52.806;18.270;2023-03-20T05:40:18;100476.97;;;9.27;100.00
51928;BME280;37953;52.806;18.270;2023-03-20T05:42:45;100479.56;;;9.27;100.00
51928;BME280;37953;52.806;18.270;2023-03-20T05:45:11;100489.94;;;9.27;100.00
51928;BME280;37953;52.806;18.270;2023-03-20T05:47:37;100490.78;;;9.28;100.00
51928;BME280;37953;52.806;18.270;2023-03-20T05:50:03;100489.94;;;9.27;100.00
51928;BME280;37953;52.806;18.270;2023-03-20T05:52:29;100487.34;;;9.27;100.00
51928;BME280;37953;52.806;18.270;2023-03-20T05:54:54;100499.41;;;9.28;100.00
51928;BME280;37953;52.806;18.270;2023-03-20T05:57:20;100497.69;;;9.29;100.00
51928;BME280;37953;52.806;18.270;2023-03-20T05:59:47;100502.91;;;9.30;100.00
51928;BME280;37953;52.806;18.270;2023-03-20T06:02:13;100499.47;;;9.31;100.00
51928;BME280;37953;52.806;18.270;2023-03-20T06:04:38;100505.53;;;9.33;100.00
51928;BME280;37953;52.806;18.270;2023-03-20T06:07:04;100498.63;;;9.34;100.00
51928;BME280;37953;52.806;18.270;2023-03-20T06:09:30;100507.28;;;9.36;100.00
51928;BME280;37953;52.806;18.270;2023-03-20T06:11:57;100502.94;;;9.35;100.00
51928;BME280;37953;52.806;18.270;2023-03-20T06:14:23;100504.69;;;9.36;100.00
51928;BME280;37953;52.806;18.270;2023-03-20T06:16:50;100510.72;;;9.36;100.00
51928;BME280;37953;52.806;18.270;2023-03-20T06:19:16;100509.88;;;9.39;100.00
51928;BME280;37953;52.806;18.270;2023-03-20T06:21:42;100511.63;;;9.40;100.00
51928;BME280;37953;52.806;18.270;2023-03-20T06:24:08;100511.63;;;9.42;100.00
51928;BME280;37953;52.806;18.270;2023-03-20T06:26:33;100506.44;;;9.42;100.00
51928;BME280;37953;52.806;18.270;2023-03-20T06:28:59;100507.34;;;9.42;100.00
51928;BME280;37953;52.806;18.270;2023-03-20T06:31:26;100513.41;;;9.44;100.00
51928;BME280;37953;52.806;18.270;2023-03-20T06:33:51;100518.56;;;9.46;100.00
51928;BME280;37953;52.806;18.270;2023-03-20T06:36:17;100515.13;;;9.47;100.00
51928;BME280;37953;52.806;18.270;2023-03-20T06:38:43;100508.22;;;9.47;100.00
51928;BME280;37953;52.806;18.270;2023-03-20T06:41:09;100509.09;;;9.49;100.00
51928;BME280;37953;52.806;18.270;2023-03-20T06:43:35;100515.16;;;9.50;100.00
51928;BME280;37953;52.806;18.270;2023-03-20T06:46:01;100516.03;;;9.52;100.00
51928;BME280;37953;52.806;18.270;2023-03-20T06:48:27;100512.59;;;9.54;100.00
51928;BME280;37953;52.806;18.270;2023-03-20T06:50:53;100511.78;;;9.57;100.00
51928;BME280;37953;52.806;18.270;2023-03-20T06:53:19;100511.78;;;9.60;100.00
51928;BME280;37953;52.806;18.270;2023-03-20T06:55:46;100506.63;;;9.63;100.00
51928;BME280;37953;52.806;18.270;2023-03-20T06:58:12;100510.97;;;9.69;100.00
51928;BME280;37953;52.806;18.270;2023-03-20T07:00:37;100504.09;;;9.72;100.00
51928;BME280;37953;52.806;18.270;2023-03-20T07:03:04;100507.56;;;9.76;100.00
51928;BME280;37953;52.806;18.270;2023-03-20T07:05:30;100507.59;;;9.81;100.00
51928;BME280;37953;52.806;18.270;2023-03-20T07:07:57;100510.22;;;9.85;100.00
51928;BME280;37953;52.806;18.270;2023-03-20T07:10:23;100518.03;;;9.90;100.00
51928;BME280;37953;52.806;18.270;2023-03-20T07:12:48;100522.38;;;9.94;100.00
51928;BME280;37953;52.806;18.270;2023-03-20T07:15:18;100528.50;;;9.99;100.00
51928;BME280;37953;52.806;18.270;2023-03-20T07:17:44;100525.03;;;10.03;100.00
51928;BME280;37953;52.806;18.270;2023-03-20T07:20:10;100530.25;;;10.08;100.00
51928;BME280;37953;52.806;18.270;2023-03-20T07:22:37;100517.31;;;10.12;100.00
51928;BME280;37953;52.806;18.270;2023-03-20T07:25:03;100518.19;;;10.16;100.00
51928;BME280;37953;52.806;18.270;2023-03-20T07:27:29;100523.41;;;10.21;100.00
51928;BME280;37953;52.806;18.270;2023-03-20T07:29:55;100529.47;;;10.26;100.00
51928;BME280;37953;52.806;18.270;2023-03-20T07:32:23;100526.94;;;10.30;100.00
51928;BME280;37953;52.806;18.270;2023-03-20T07:34:48;100535.63;;;10.37;100.00
51928;BME280;37953;52.806;18.270;2023-03-20T07:37:20;100535.66;;;10.42;100.00
51928;BME280;37953;52.806;18.270;2023-03-20T07:39:46;100539.13;;;10.45;100.00
51928;BME280;37953;52.806;18.270;2023-03-20T07:42:12;100537.41;;;10.49;100.00
51928;BME280;37953;52.806;18.270;2023-03-20T07:44:38;100542.63;;;10.50;100.00
51928;BME280;37953;52.806;18.270;2023-03-20T07:47:04;100545.25;;;10.56;100.00
51928;BME280;37953;52.806;18.270;2023-03-20T07:49:32;100553.03;;;10.58;100.00
51928;BME280;37953;52.806;18.270;2023-03-20T07:51:58;100560.00;;;10.61;100.00
51928;BME280;37953;52.806;18.270;2023-03-20T07:54:23;100565.16;;;10.59;100.00
51928;BME280;37953;52.806;18.270;2023-03-20T07:56:50;100553.03;;;10.58;100.00
51928;BME280;37953;52.806;18.270;2023-03-20T07:59:16;100560.84;;;10.56;100.00
51928;BME280;37953;52.806;18.270;2023-03-20T08:01:42;100564.25;;;10.54;100.00
51928;BME280;37953;52.806;18.270;2023-03-20T08:04:08;100560.78;;;10.52;100.00
51928;BME280;37953;52.806;18.270;2023-03-20T08:06:33;100558.19;;;10.49;100.00
51928;BME280;37953;52.806;18.270;2023-03-20T08:09:00;100565.97;;;10.47;100.00
51928;BME280;37953;52.806;18.270;2023-03-20T08:11:26;100561.63;;;10.45;100.00
51928;BME280;37953;52.806;18.270;2023-03-20T08:13:52;100555.56;;;10.43;100.00
51928;BME280;37953;52.806;18.270;2023-03-20T08:16:17;100563.34;;;10.41;100.00
51928;BME280;37953;52.806;18.270;2023-03-20T08:18:43;100561.63;;;10.40;100.00
51928;BME280;37953;52.806;18.270;2023-03-20T08:21:09;100565.94;;;10.41;100.00
51928;BME280;37953;52.806;18.270;2023-03-20T08:23:35;100567.66;;;10.41;100.00
51928;BME280;37953;52.806;18.270;2023-03-20T08:26:01;100559.03;;;10.42;100.00
51928;BME280;37953;52.806;18.270;2023-03-20T08:28:27;100565.09;;;10.42;100.00
51928;BME280;37953;52.806;18.270;2023-03-20T08:30:52;100565.09;;;10.44;100.00
51928;BME280;37953;52.806;18.270;2023-03-20T08:33:18;100565.09;;;10.45;100.00
51928;BME280;37953;52.806;18.270;2023-03-20T08:35:53;100568.59;;;10.46;100.00
51928;BME280;37953;52.806;18.270;2023-03-20T08:38:20;100559.91;;;10.47;100.00
51928;BME280;37953;52.806;18.270;2023-03-20T08:40:46;100561.66;;;10.48;100.00
51928;BME280;37953;52.806;18.270;2023-03-20T08:43:15;100566.84;;;10.49;100.00
51928;BME280;37953;52.806;18.270;2023-03-20T08:45:41;100556.44;;;10.49;100.00
51928;BME280;37953;52.806;18.270;2023-03-20T08:48:07;100566.84;;;10.49;100.00
51928;BME280;37953;52.806;18.270;2023-03-20T08:50:33;100567.72;;;10.51;100.00
51928;BME280;37953;52.806;18.270;2023-03-20T08:52:59;100565.97;;;10.52;100.00
51928;BME280;37953;52.806;18.270;2023-03-20T08:55:25;100559.94;;;10.51;100.00
51928;BME280;37953;52.806;18.270;2023-03-20T08:57:51;100570.34;;;10.53;100.00
51928;BME280;37953;52.806;18.270;2023-03-20T09:00:19;100568.63;;;10.55;100.00
51928;BME280;37953;52.806;18.270;2023-03-20T09:02:45;100576.41;;;10.56;100.00
51928;BME280;37953;52.806;18.270;2023-03-20T09:05:11;100566.88;;;10.57;100.00
51928;BME280;37953;52.806;18.270;2023-03-20T09:07:37;100576.41;;;10.58;100.00
51928;BME280;37953;52.806;18.270;2023-03-20T09:10:03;100574.69;;;10.60;100.00
51928;BME280;37953;52.806;18.270;2023-03-20T09:12:29;100573.84;;;10.61;100.00
51928;BME280;37953;52.806;18.270;2023-03-20T09:15:01;100579.94;;;10.65;100.00
51928;BME280;37953;52.806;18.270;2023-03-20T09:17:27;100579.03;;;10.66;100.00
51928;BME280;37953;52.806;18.270;2023-03-20T09:19:53;100573.88;;;10.67;100.00
51928;BME280;37953;52.806;18.270;2023-03-20T09:22:19;100579.03;;;10.69;100.00
51928;BME280;37953;52.806;18.270;2023-03-20T09:24:45;100578.19;;;10.70;100.00
51928;BME280;37953;52.806;18.270;2023-03-20T09:27:11;100577.34;;;10.72;100.00
51928;BME280;37953;52.806;18.270;2023-03-20T09:29:40;100573.00;;;10.74;100.00
51928;BME280;37953;52.806;18.270;2023-03-20T09:32:08;100580.81;;;10.79;100.00
51928;BME280;37953;52.806;18.270;2023-03-20T09:34:38;100571.31;;;10.81;100.00
51928;BME280;37953;52.806;18.270;2023-03-20T09:37:05;100573.03;;;10.85;100.00
51928;BME280;37953;52.806;18.270;2023-03-20T09:39:31;100573.91;;;10.87;100.00
51928;BME280;37953;52.806;18.270;2023-03-20T09:41:59;100571.34;;;10.90;100.00
51928;BME280;37953;52.806;18.270;2023-03-20T09:44:33;100570.47;;;10.91;100.00
51928;BME280;37953;52.806;18.270;2023-03-20T09:49:39;100565.28;;;10.93;100.00
51928;BME280;37953;52.806;18.270;2023-03-20T09:54:40;100564.41;;;10.94;100.00
51928;BME280;37953;52.806;18.270;2023-03-20T09:57:14;100561.81;;;10.94;100.00
51928;BME280;37953;52.806;18.270;2023-03-20T09:59:41;100560.09;;;10.93;100.00
51928;BME280;37953;52.806;18.270;2023-03-20T10:02:13;100557.50;;;10.93;100.00
51928;BME280;37953;52.806;18.270;2023-03-20T10:04:40;100553.13;;;10.92;100.00
51928;BME280;37953;52.806;18.270;2023-03-20T10:07:09;100543.63;;;10.91;100.00
51928;BME280;37953;52.806;18.270;2023-03-20T10:09:37;100535.81;;;10.91;100.00
51928;BME280;37953;52.806;18.270;2023-03-20T10:15:02;100529.75;;;10.90;100.00
51928;BME280;37953;52.806;18.270;2023-03-20T10:22:49;100537.56;;;10.90;100.00
51928;BME280;37953;52.806;18.270;2023-03-20T10:27:55;100538.44;;;10.91;100.00
51928;BME280;37953;52.806;18.270;2023-03-20T10:35:49;100537.56;;;10.93;100.00
51928;BME280;37953;52.806;18.270;2023-03-20T10:38:39;100538.44;;;10.98;100.00
51928;BME280;37953;52.806;18.270;2023-03-20T10:41:08;100539.31;;;11.02;100.00
51928;BME280;37953;52.806;18.270;2023-03-20T10:43:38;100540.19;;;11.06;100.00
51928;BME280;37953;52.806;18.270;2023-03-20T10:46:09;100532.38;;;11.09;100.00
51928;BME280;37953;52.806;18.270;2023-03-20T10:48:40;100536.72;;;11.13;100.00
51928;BME280;37953;52.806;18.270;2023-03-20T10:51:09;100534.16;;;11.16;100.00
51928;BME280;37953;52.806;18.270;2023-03-20T10:54:00;100542.78;;;11.19;100.00
51928;BME280;37953;52.806;18.270;2023-03-20T10:58:57;100538.47;;;11.28;100.00
51928;BME280;37953;52.806;18.270;2023-03-20T11:01:34;100545.44;;;11.30;100.00
51928;BME280;37953;52.806;18.270;2023-03-20T11:06:32;100541.94;;;11.36;100.00
51928;BME280;37953;52.806;18.270;2023-03-20T11:09:08;100556.69;;;11.38;100.00
51928;BME280;37953;52.806;18.270;2023-03-20T11:11:36;100554.94;;;11.40;100.00
51928;BME280;37953;52.806;18.270;2023-03-20T11:14:16;100542.84;;;11.41;100.00
51928;BME280;37953;52.806;18.270;2023-03-20T11:16:46;100544.56;;;11.44;100.00
51928;BME280;37953;52.806;18.270;2023-03-20T11:19:26;100534.16;;;11.44;100.00
51928;BME280;37953;52.806;18.270;2023-03-20T11:21:58;100541.09;;;11.45;100.00
51928;BME280;37953;52.806;18.270;2023-03-20T11:26:51;100539.34;;;11.47;100.00
51928;BME280;37953;52.806;18.270;2023-03-20T11:29:30;100540.25;;;11.47;100.00
51928;BME280;37953;52.806;18.270;2023-03-20T11:32:06;100540.22;;;11.49;100.00
51928;BME280;37953;52.806;18.270;2023-03-20T11:34:47;100538.50;;;11.51;100.00
51928;BME280;37953;52.806;18.270;2023-03-20T11:37:29;100543.69;;;11.51;100.00
51928;BME280;37953;52.806;18.270;2023-03-20T11:39:59;100543.69;;;11.52;100.00
51928;BME280;37953;52.806;18.270;2023-03-20T11:42:26;100544.56;;;11.54;100.00
51928;BME280;37953;52.806;18.270;2023-03-20T11:44:56;100547.16;;;11.57;100.00
51928;BME280;37953;52.806;18.270;2023-03-20T11:47:23;100541.09;;;11.58;100.00
51928;BME280;37953;52.806;18.270;2023-03-20T11:49:54;100532.41;;;11.59;100.00
51928;BME280;37953;52.806;18.270;2023-03-20T11:52:24;100530.69;;;11.61;100.00
51928;BME280;37953;52.806;18.270;2023-03-20T11:54:54;100530.69;;;11.63;100.00
51928;BME280;37953;52.806;18.270;2023-03-20T11:57:34;100525.50;;;11.65;100.00
51928;BME280;37953;52.806;18.270;2023-03-20T12:00:15;100516.81;;;11.67;100.00
51928;BME280;37953;52.806;18.270;2023-03-20T12:02:52;100519.38;;;11.70;100.00
51928;BME280;37953;52.806;18.270;2023-03-20T12:11:05;100515.06;;;11.92;100.00
51928;BME280;37953;52.806;18.270;2023-03-20T12:13:36;100519.38;;;11.98;100.00
51928;BME280;37953;52.806;18.270;2023-03-20T12:16:11;100511.56;;;12.02;100.00
51928;BME280;37953;52.806;18.270;2023-03-20T12:18:39;100502.00;;;12.06;100.00
51928;BME280;37953;52.806;18.270;2023-03-20T12:21:12;100513.28;;;12.13;100.00
51928;BME280;37953;52.806;18.270;2023-03-20T12:26:12;100506.31;;;12.19;100.00
51928;BME280;37953;52.806;18.270;2023-03-20T12:33:45;100521.06;;;12.24;100.00
51928;BME280;37953;52.806;18.270;2023-03-20T12:36:16;100518.47;;;12.24;100.00
51928;BME280;37953;52.806;18.270;2023-03-20T12:38:43;100510.66;;;12.22;100.00
51928;BME280;37953;52.806;18.270;2023-03-20T12:43:41;100509.78;;;12.20;100.00
51928;BME280;37953;52.806;18.270;2023-03-20T12:46:29;100514.13;;;12.19;100.00
51928;BME280;37953;52.806;18.270;2023-03-20T12:52:00;100502.81;;;12.20;100.00
51928;BME280;37953;52.806;18.270;2023-03-20T12:57:36;100502.81;;;12.19;100.00
51928;BME280;37953;52.806;18.270;2023-03-20T13:00:17;100507.19;;;12.21;100.00
51928;BME280;37953;52.806;18.270;2023-03-20T13:13:51;100491.50;;;12.37;100.00
51928;BME280;37953;52.806;18.270;2023-03-20T13:19:08;100476.69;;;12.43;100.00
51928;BME280;37953;52.806;18.270;2023-03-20T13:21:46;100471.47;;;12.47;100.00
51928;BME280;37953;52.806;18.270;2023-03-20T13:24:21;100467.09;;;12.50;100.00
51928;BME280;37953;52.806;18.270;2023-03-20T13:37:33;100446.91;;;12.86;100.00
51928;BME280;37953;52.806;18.270;2023-03-20T13:42:46;100436.34;;;13.01;100.00
51928;BME280;37953;52.806;18.270;2023-03-20T13:47:46;100434.53;;;13.10;100.00
51928;BME280;37953;52.806;18.270;2023-03-20T13:52:43;100430.19;;;13.12;100.00
51928;BME280;37953;52.806;18.270;2023-03-20T13:55:15;100428.44;;;13.14;100.00
51928;BME280;37953;52.806;18.270;2023-03-20T13:57:57;100425.81;;;13.15;100.00
51928;BME280;37953;52.806;18.270;2023-03-20T14:05:36;100418.75;;;13.27;100.00
51928;BME280;37953;52.806;18.270;2023-03-20T14:08:19;100413.56;;;13.30;100.00
51928;BME280;37953;52.806;18.270;2023-03-20T14:10:53;100409.16;;;13.33;100.00
51928;BME280;37953;52.806;18.270;2023-03-20T14:13:19;100403.06;;;13.34;100.00
51928;BME280;37953;52.806;18.270;2023-03-20T14:15:51;100413.50;;;13.36;100.00
51928;BME280;37953;52.806;18.270;2023-03-20T14:18:27;100415.22;;;13.35;100.00
51928;BME280;37953;52.806;18.270;2023-03-20T14:21:01;100412.63;;;13.35;100.00
51928;BME280;37953;52.806;18.270;2023-03-20T14:23:49;100399.56;;;13.35;100.00
51928;BME280;37953;52.806;18.270;2023-03-20T14:26:19;100399.59;;;13.34;100.00
51928;BME280;37953;52.806;18.270;2023-03-20T14:29:32;100408.28;;;13.33;100.00
51928;BME280;37953;52.806;18.270;2023-03-20T14:31:32;100397.00;;;13.34;100.00
51928;BME280;37953;52.806;18.270;2023-03-20T14:34:16;100397.00;;;13.32;100.00
51928;BME280;37953;52.806;18.270;2023-03-20T14:39:17;100396.09;;;13.35;100.00
51928;BME280;37953;52.806;18.270;2023-03-20T14:54:53;100395.19;;;13.39;100.00
51928;BME280;37953;52.806;18.270;2023-03-20T14:57:32;100389.13;;;13.37;100.00
51928;BME280;37953;52.806;18.270;2023-03-20T14:59:58;100389.97;;;13.37;100.00
51928;BME280;37953;52.806;18.270;2023-03-20T15:02:33;100393.50;;;13.36;100.00
51928;BME280;37953;52.806;18.270;2023-03-20T15:04:59;100393.50;;;13.36;100.00
51928;BME280;37953;52.806;18.270;2023-03-20T15:07:33;100396.09;;;13.35;100.00
51928;BME280;37953;52.806;18.270;2023-03-20T15:10:01;100396.09;;;13.35;100.00
51928;BME280;37953;52.806;18.270;2023-03-20T15:12:33;100400.47;;;13.34;100.00
51928;BME280;37953;52.806;18.270;2023-03-20T15:15:03;100392.66;;;13.33;100.00
51928;BME280;37953;52.806;18.270;2023-03-20T15:17:34;100396.09;;;13.33;100.00